METAR Data

Data at: 0546 UTC 28 Sep 2022

METAR for:KBOS (Boston/Logan Intl, MA, US)
Text:KBOS 280454Z 24009KT 10SM CLR 14/09 A2992 RMK AO2 SLP130 T01440094 402390144
Temperature: 14.4°C ( 58°F)
Dewpoint: 9.4°C ( 49°F) [RH = 72%]
Pressure (altimeter):29.92 inches Hg (1013.3 mb) [Sea level pressure: 1013.0 mb]
Winds:from the WSW (240 degrees) at 10 MPH (9 knots; 4.6 m/s)
Visibility:10 or more sm (16+ km)
Ceiling:at least 12,000 feet AGL
Clouds:sky clear below 12,000 feet AGL